sensor_id;sensor_type;location;lat;lon;timestamp;P1;durP1;ratioP1;P2;durP2;ratioP2
66972;SDS011;53902;51.466;-2.586;2023-03-02T00:02:12;5.93;;;1.95;;
66972;SDS011;53902;51.466;-2.586;2023-03-02T00:04:43;6.57;;;2.17;;
66972;SDS011;53902;51.466;-2.586;2023-03-02T00:07:10;6.57;;;1.85;;
66972;SDS011;53902;51.466;-2.586;2023-03-02T00:09:38;3.88;;;1.83;;
66972;SDS011;53902;51.466;-2.586;2023-03-02T00:12:03;8.23;;;2.40;;
66972;SDS011;53902;51.466;-2.586;2023-03-02T00:14:30;2.75;;;2.35;;
66972;SDS011;53902;51.466;-2.586;2023-03-02T00:16:56;5.47;;;2.55;;
66972;SDS011;53902;51.466;-2.586;2023-03-02T00:19:21;8.23;;;2.53;;
66972;SDS011;53902;51.466;-2.586;2023-03-02T00:21:47;3.95;;;2.50;;
66972;SDS011;53902;51.466;-2.586;2023-03-02T00:24:12;4.90;;;2.40;;
66972;SDS011;53902;51.466;-2.586;2023-03-02T00:26:41;5.45;;;2.30;;
66972;SDS011;53902;51.466;-2.586;2023-03-02T00:29:08;8.90;;;2.50;;
66972;SDS011;53902;51.466;-2.586;2023-03-02T00:31:36;5.35;;;2.42;;
66972;SDS011;53902;51.466;-2.586;2023-03-02T00:34:02;4.95;;;2.20;;
66972;SDS011;53902;51.466;-2.586;2023-03-02T00:36:27;3.42;;;2.03;;
66972;SDS011;53902;51.466;-2.586;2023-03-02T00:38:55;8.50;;;2.40;;
66972;SDS011;53902;51.466;-2.586;2023-03-02T00:41:22;6.15;;;2.10;;
66972;SDS011;53902;51.466;-2.586;2023-03-02T00:43:48;5.97;;;2.30;;
66972;SDS011;53902;51.466;-2.586;2023-03-02T00:46:20;4.07;;;1.95;;
66972;SDS011;53902;51.466;-2.586;2023-03-02T00:48:47;4.13;;;2.08;;
66972;SDS011;53902;51.466;-2.586;2023-03-02T00:51:13;5.68;;;2.40;;
66972;SDS011;53902;51.466;-2.586;2023-03-02T00:53:39;5.55;;;2.15;;
66972;SDS011;53902;51.466;-2.586;2023-03-02T00:56:12;4.45;;;2.30;;
66972;SDS011;53902;51.466;-2.586;2023-03-02T00:58:45;3.75;;;2.13;;
66972;SDS011;53902;51.466;-2.586;2023-03-02T01:01:12;5.10;;;1.92;;
66972;SDS011;53902;51.466;-2.586;2023-03-02T01:03:38;6.53;;;2.08;;
66972;SDS011;53902;51.466;-2.586;2023-03-02T01:06:04;6.78;;;2.13;;
66972;SDS011;53902;51.466;-2.586;2023-03-02T01:08:30;5.15;;;2.28;;
66972;SDS011;53902;51.466;-2.586;2023-03-02T01:10:55;5.05;;;1.92;;
66972;SDS011;53902;51.466;-2.586;2023-03-02T01:13:25;4.03;;;2.05;;
66972;SDS011;53902;51.466;-2.586;2023-03-02T01:15:58;7.97;;;2.08;;
66972;SDS011;53902;51.466;-2.586;2023-03-02T01:18:29;5.18;;;1.95;;
66972;SDS011;53902;51.466;-2.586;2023-03-02T01:21:03;4.60;;;1.80;;
66972;SDS011;53902;51.466;-2.586;2023-03-02T01:23:30;2.75;;;1.70;;
66972;SDS011;53902;51.466;-2.586;2023-03-02T01:25:55;4.35;;;1.75;;
66972;SDS011;53902;51.466;-2.586;2023-03-02T01:28:21;4.90;;;2.20;;
66972;SDS011;53902;51.466;-2.586;2023-03-02T01:30:49;6.13;;;1.98;;
66972;SDS011;53902;51.466;-2.586;2023-03-02T01:33:17;9.13;;;1.90;;
66972;SDS011;53902;51.466;-2.586;2023-03-02T01:35:43;5.78;;;1.70;;
66972;SDS011;53902;51.466;-2.586;2023-03-02T01:38:10;2.85;;;1.90;;
66972;SDS011;53902;51.466;-2.586;2023-03-02T01:40:35;4.07;;;2.00;;
66972;SDS011;53902;51.466;-2.586;2023-03-02T01:43:01;7.28;;;2.10;;
66972;SDS011;53902;51.466;-2.586;2023-03-02T01:45:43;3.35;;;1.67;;
66972;SDS011;53902;51.466;-2.586;2023-03-02T01:48:09;6.88;;;2.40;;
66972;SDS011;53902;51.466;-2.586;2023-03-02T01:50:35;4.72;;;2.17;;
66972;SDS011;53902;51.466;-2.586;2023-03-02T01:53:03;6.30;;;2.13;;
66972;SDS011;53902;51.466;-2.586;2023-03-02T01:55:29;4.85;;;1.92;;
66972;SDS011;53902;51.466;-2.586;2023-03-02T02:00:22;3.53;;;1.90;;
66972;SDS011;53902;51.466;-2.586;2023-03-02T02:02:54;5.63;;;1.55;;
66972;SDS011;53902;51.466;-2.586;2023-03-02T02:05:32;5.47;;;1.83;;
66972;SDS011;53902;51.466;-2.586;2023-03-02T02:07:59;4.78;;;1.60;;
66972;SDS011;53902;51.466;-2.586;2023-03-02T02:10:24;3.83;;;1.98;;
66972;SDS011;53902;51.466;-2.586;2023-03-02T02:12:50;6.57;;;1.83;;
66972;SDS011;53902;51.466;-2.586;2023-03-02T02:15:18;112.57;;;6.78;;
66972;SDS011;53902;51.466;-2.586;2023-03-02T02:17:45;8.02;;;2.25;;
66972;SDS011;53902;51.466;-2.586;2023-03-02T02:20:22;5.78;;;1.70;;
66972;SDS011;53902;51.466;-2.586;2023-03-02T02:25:22;3.45;;;1.52;;
66972;SDS011;53902;51.466;-2.586;2023-03-02T02:27:55;4.18;;;1.98;;
66972;SDS011;53902;51.466;-2.586;2023-03-02T02:30:21;4.60;;;1.70;;
66972;SDS011;53902;51.466;-2.586;2023-03-02T02:32:48;4.43;;;1.52;;
66972;SDS011;53902;51.466;-2.586;2023-03-02T02:35:23;5.97;;;1.90;;
66972;SDS011;53902;51.466;-2.586;2023-03-02T02:37:55;3.05;;;1.63;;
66972;SDS011;53902;51.466;-2.586;2023-03-02T02:43:13;5.80;;;1.92;;
66972;SDS011;53902;51.466;-2.586;2023-03-02T02:45:40;4.90;;;1.70;;
66972;SDS011;53902;51.466;-2.586;2023-03-02T02:48:10;5.50;;;1.80;;
66972;SDS011;53902;51.466;-2.586;2023-03-02T02:50:40;7.20;;;2.00;;
66972;SDS011;53902;51.466;-2.586;2023-03-02T02:53:13;2.45;;;1.52;;
66972;SDS011;53902;51.466;-2.586;2023-03-02T02:55:41;4.07;;;1.80;;
66972;SDS011;53902;51.466;-2.586;2023-03-02T03:01:13;6.53;;;1.90;;
66972;SDS011;53902;51.466;-2.586;2023-03-02T03:06:07;4.18;;;1.98;;
66972;SDS011;53902;51.466;-2.586;2023-03-02T03:11:08;4.93;;;2.38;;
66972;SDS011;53902;51.466;-2.586;2023-03-02T03:13:38;6.68;;;2.30;;
66972;SDS011;53902;51.466;-2.586;2023-03-02T03:16:06;7.07;;;2.90;;
66972;SDS011;53902;51.466;-2.586;2023-03-02T03:18:34;8.70;;;2.58;;
66972;SDS011;53902;51.466;-2.586;2023-03-02T03:21:03;3.85;;;2.15;;
66972;SDS011;53902;51.466;-2.586;2023-03-02T03:23:29;11.95;;;4.45;;
66972;SDS011;53902;51.466;-2.586;2023-03-02T03:25:54;6.47;;;2.47;;
66972;SDS011;53902;51.466;-2.586;2023-03-02T03:28:20;4.63;;;2.83;;
66972;SDS011;53902;51.466;-2.586;2023-03-02T03:30:45;10.27;;;3.08;;
66972;SDS011;53902;51.466;-2.586;2023-03-02T03:33:10;5.55;;;2.22;;
66972;SDS011;53902;51.466;-2.586;2023-03-02T03:35:39;10.68;;;3.10;;
66972;SDS011;53902;51.466;-2.586;2023-03-02T03:38:06;7.93;;;3.30;;
66972;SDS011;53902;51.466;-2.586;2023-03-02T03:40:34;7.80;;;3.20;;
66972;SDS011;53902;51.466;-2.586;2023-03-02T03:43:00;7.65;;;3.92;;
66972;SDS011;53902;51.466;-2.586;2023-03-02T03:45:26;6.85;;;3.08;;
66972;SDS011;53902;51.466;-2.586;2023-03-02T03:47:54;8.52;;;4.38;;
66972;SDS011;53902;51.466;-2.586;2023-03-02T03:50:20;5.28;;;2.45;;
66972;SDS011;53902;51.466;-2.586;2023-03-02T03:52:49;8.25;;;2.38;;
66972;SDS011;53902;51.466;-2.586;2023-03-02T03:55:14;6.32;;;2.47;;
66972;SDS011;53902;51.466;-2.586;2023-03-02T03:57:42;8.65;;;2.47;;
66972;SDS011;53902;51.466;-2.586;2023-03-02T04:00:09;5.45;;;2.60;;
66972;SDS011;53902;51.466;-2.586;2023-03-02T04:02:38;5.68;;;2.60;;
66972;SDS011;53902;51.466;-2.586;2023-03-02T04:05:07;4.45;;;2.47;;
66972;SDS011;53902;51.466;-2.586;2023-03-02T04:07:34;7.03;;;2.60;;
66972;SDS011;53902;51.466;-2.586;2023-03-02T04:10:00;7.45;;;2.70;;
66972;SDS011;53902;51.466;-2.586;2023-03-02T04:12:32;4.63;;;2.30;;
66972;SDS011;53902;51.466;-2.586;2023-03-02T04:15:01;5.40;;;2.20;;
66972;SDS011;53902;51.466;-2.586;2023-03-02T04:17:29;7.03;;;2.60;;
66972;SDS011;53902;51.466;-2.586;2023-03-02T04:19:57;7.60;;;2.10;;
66972;SDS011;53902;51.466;-2.586;2023-03-02T04:22:31;4.68;;;2.15;;
66972;SDS011;53902;51.466;-2.586;2023-03-02T04:24:57;4.25;;;2.00;;
66972;SDS011;53902;51.466;-2.586;2023-03-02T04:27:22;7.25;;;2.25;;
66972;SDS011;53902;51.466;-2.586;2023-03-02T04:29:50;3.55;;;2.20;;
66972;SDS011;53902;51.466;-2.586;2023-03-02T04:32:19;5.65;;;2.15;;
66972;SDS011;53902;51.466;-2.586;2023-03-02T04:34:47;7.15;;;2.50;;
66972;SDS011;53902;51.466;-2.586;2023-03-02T04:37:15;5.60;;;2.30;;
66972;SDS011;53902;51.466;-2.586;2023-03-02T04:39:40;4.70;;;2.20;;
66972;SDS011;53902;51.466;-2.586;2023-03-02T04:42:08;7.75;;;3.30;;
66972;SDS011;53902;51.466;-2.586;2023-03-02T04:44:34;3.40;;;2.53;;
66972;SDS011;53902;51.466;-2.586;2023-03-02T04:47:02;5.03;;;2.20;;
66972;SDS011;53902;51.466;-2.586;2023-03-02T04:49:27;4.13;;;2.03;;
66972;SDS011;53902;51.466;-2.586;2023-03-02T04:51:53;5.38;;;2.22;;
66972;SDS011;53902;51.466;-2.586;2023-03-02T04:54:22;5.70;;;1.88;;
66972;SDS011;53902;51.466;-2.586;2023-03-02T04:56:49;4.03;;;2.08;;
66972;SDS011;53902;51.466;-2.586;2023-03-02T04:59:16;6.10;;;2.35;;
66972;SDS011;53902;51.466;-2.586;2023-03-02T05:01:45;3.17;;;2.08;;
66972;SDS011;53902;51.466;-2.586;2023-03-02T05:04:10;5.25;;;2.30;;
66972;SDS011;53902;51.466;-2.586;2023-03-02T05:06:36;3.75;;;1.95;;
66972;SDS011;53902;51.466;-2.586;2023-03-02T05:09:02;6.78;;;2.20;;
66972;SDS011;53902;51.466;-2.586;2023-03-02T05:11:28;5.28;;;2.47;;
66972;SDS011;53902;51.466;-2.586;2023-03-02T05:13:55;5.15;;;2.22;;
66972;SDS011;53902;51.466;-2.586;2023-03-02T05:16:22;4.63;;;2.00;;
66972;SDS011;53902;51.466;-2.586;2023-03-02T05:18:48;3.80;;;2.03;;
66972;SDS011;53902;51.466;-2.586;2023-03-02T05:21:14;4.75;;;2.22;;
66972;SDS011;53902;51.466;-2.586;2023-03-02T05:23:40;3.88;;;1.67;;
66972;SDS011;53902;51.466;-2.586;2023-03-02T05:26:09;4.53;;;2.00;;
66972;SDS011;53902;51.466;-2.586;2023-03-02T05:28:37;4.68;;;2.03;;
66972;SDS011;53902;51.466;-2.586;2023-03-02T05:31:06;2.75;;;1.75;;
66972;SDS011;53902;51.466;-2.586;2023-03-02T05:33:31;5.35;;;1.80;;
66972;SDS011;53902;51.466;-2.586;2023-03-02T05:35:58;5.57;;;2.05;;
66972;SDS011;53902;51.466;-2.586;2023-03-02T05:38:24;3.08;;;1.80;;
66972;SDS011;53902;51.466;-2.586;2023-03-02T05:40:55;4.13;;;2.10;;
66972;SDS011;53902;51.466;-2.586;2023-03-02T05:43:20;5.75;;;1.75;;
66972;SDS011;53902;51.466;-2.586;2023-03-02T05:45:47;3.30;;;1.87;;
66972;SDS011;53902;51.466;-2.586;2023-03-02T05:48:13;4.78;;;1.80;;
66972;SDS011;53902;51.466;-2.586;2023-03-02T05:50:42;6.32;;;1.70;;
66972;SDS011;53902;51.466;-2.586;2023-03-02T05:53:10;3.58;;;1.95;;
66972;SDS011;53902;51.466;-2.586;2023-03-02T05:55:35;2.90;;;1.70;;
66972;SDS011;53902;51.466;-2.586;2023-03-02T05:58:06;3.00;;;1.83;;
66972;SDS011;53902;51.466;-2.586;2023-03-02T06:00:33;6.80;;;1.70;;
66972;SDS011;53902;51.466;-2.586;2023-03-02T06:02:58;2.35;;;1.63;;
66972;SDS011;53902;51.466;-2.586;2023-03-02T06:05:24;3.63;;;1.88;;
66972;SDS011;53902;51.466;-2.586;2023-03-02T06:07:49;3.20;;;2.00;;
66972;SDS011;53902;51.466;-2.586;2023-03-02T06:10:17;4.30;;;1.88;;
66972;SDS011;53902;51.466;-2.586;2023-03-02T06:12:45;4.47;;;2.05;;
66972;SDS011;53902;51.466;-2.586;2023-03-02T06:15:13;3.92;;;2.33;;
66972;SDS011;53902;51.466;-2.586;2023-03-02T06:17:41;3.03;;;1.85;;
66972;SDS011;53902;51.466;-2.586;2023-03-02T06:20:12;2.72;;;1.90;;
66972;SDS011;53902;51.466;-2.586;2023-03-02T06:22:39;2.97;;;2.10;;
66972;SDS011;53902;51.466;-2.586;2023-03-02T06:25:15;4.43;;;2.03;;
66972;SDS011;53902;51.466;-2.586;2023-03-02T06:27:45;2.13;;;1.92;;
66972;SDS011;53902;51.466;-2.586;2023-03-02T06:30:18;3.22;;;2.10;;
66972;SDS011;53902;51.466;-2.586;2023-03-02T06:32:45;3.00;;;1.83;;
66972;SDS011;53902;51.466;-2.586;2023-03-02T06:35:13;3.47;;;2.15;;
66972;SDS011;53902;51.466;-2.586;2023-03-02T06:37:39;4.90;;;2.30;;
66972;SDS011;53902;51.466;-2.586;2023-03-02T06:40:05;3.67;;;2.33;;
66972;SDS011;53902;51.466;-2.586;2023-03-02T06:42:35;2.80;;;2.00;;
66972;SDS011;53902;51.466;-2.586;2023-03-02T06:45:01;5.97;;;1.92;;
66972;SDS011;53902;51.466;-2.586;2023-03-02T06:47:32;5.43;;;2.00;;
66972;SDS011;53902;51.466;-2.586;2023-03-02T06:49:58;7.38;;;2.55;;
66972;SDS011;53902;51.466;-2.586;2023-03-02T06:52:24;2.30;;;2.10;;
66972;SDS011;53902;51.466;-2.586;2023-03-02T06:57:16;2.92;;;1.98;;
66972;SDS011;53902;51.466;-2.586;2023-03-02T06:59:42;4.95;;;2.63;;
66972;SDS011;53902;51.466;-2.586;2023-03-02T07:02:08;3.38;;;2.60;;
66972;SDS011;53902;51.466;-2.586;2023-03-02T07:04:36;4.18;;;2.30;;
66972;SDS011;53902;51.466;-2.586;2023-03-02T07:07:07;2.47;;;1.90;;
66972;SDS011;53902;51.466;-2.586;2023-03-02T07:09:33;6.25;;;2.30;;
66972;SDS011;53902;51.466;-2.586;2023-03-02T07:11:59;3.38;;;2.08;;
66972;SDS011;53902;51.466;-2.586;2023-03-02T07:24:42;3.90;;;2.28;;
66972;SDS011;53902;51.466;-2.586;2023-03-02T07:27:07;3.60;;;2.13;;
66972;SDS011;53902;51.466;-2.586;2023-03-02T07:29:44;2.90;;;2.10;;
66972;SDS011;53902;51.466;-2.586;2023-03-02T07:32:16;4.43;;;2.92;;
66972;SDS011;53902;51.466;-2.586;2023-03-02T07:34:41;2.55;;;2.35;;
66972;SDS011;53902;51.466;-2.586;2023-03-02T07:37:07;3.05;;;2.40;;
66972;SDS011;53902;51.466;-2.586;2023-03-02T07:39:35;3.75;;;2.17;;
66972;SDS011;53902;51.466;-2.586;2023-03-02T07:42:00;2.83;;;2.30;;
66972;SDS011;53902;51.466;-2.586;2023-03-02T07:44:28;9.63;;;2.83;;
66972;SDS011;53902;51.466;-2.586;2023-03-02T07:46:54;7.05;;;2.80;;
66972;SDS011;53902;51.466;-2.586;2023-03-02T07:49:20;5.38;;;3.20;;
66972;SDS011;53902;51.466;-2.586;2023-03-02T07:51:46;4.25;;;3.22;;
66972;SDS011;53902;51.466;-2.586;2023-03-02T07:54:14;6.13;;;2.78;;
66972;SDS011;53902;51.466;-2.586;2023-03-02T07:56:47;5.63;;;3.47;;
66972;SDS011;53902;51.466;-2.586;2023-03-02T07:59:12;3.90;;;3.00;;
66972;SDS011;53902;51.466;-2.586;2023-03-02T08:01:38;3.97;;;2.72;;
66972;SDS011;53902;51.466;-2.586;2023-03-02T08:04:09;6.63;;;3.50;;
66972;SDS011;53902;51.466;-2.586;2023-03-02T08:06:34;4.60;;;3.10;;
66972;SDS011;53902;51.466;-2.586;2023-03-02T08:09:03;5.25;;;3.20;;
66972;SDS011;53902;51.466;-2.586;2023-03-02T08:11:28;5.28;;;2.80;;
66972;SDS011;53902;51.466;-2.586;2023-03-02T08:13:54;4.75;;;2.90;;
66972;SDS011;53902;51.466;-2.586;2023-03-02T08:16:24;6.20;;;3.13;;
66972;SDS011;53902;51.466;-2.586;2023-03-02T08:18:53;8.52;;;3.92;;
66972;SDS011;53902;51.466;-2.586;2023-03-02T08:21:24;5.57;;;3.45;;
66972;SDS011;53902;51.466;-2.586;2023-03-02T08:23:52;4.50;;;3.35;;
66972;SDS011;53902;51.466;-2.586;2023-03-02T08:26:18;7.55;;;4.32;;
66972;SDS011;53902;51.466;-2.586;2023-03-02T08:28:46;5.63;;;4.00;;
66972;SDS011;53902;51.466;-2.586;2023-03-02T08:31:12;8.40;;;3.58;;
66972;SDS011;53902;51.466;-2.586;2023-03-02T08:33:37;6.03;;;4.15;;
66972;SDS011;53902;51.466;-2.586;2023-03-02T08:36:04;7.05;;;5.03;;
66972;SDS011;53902;51.466;-2.586;2023-03-02T08:38:32;8.25;;;5.25;;
66972;SDS011;53902;51.466;-2.586;2023-03-02T08:41:01;8.13;;;5.30;;
66972;SDS011;53902;51.466;-2.586;2023-03-02T08:43:30;7.97;;;4.63;;
66972;SDS011;53902;51.466;-2.586;2023-03-02T08:45:56;10.52;;;4.35;;
66972;SDS011;53902;51.466;-2.586;2023-03-02T08:48:22;7.45;;;4.78;;
66972;SDS011;53902;51.466;-2.586;2023-03-02T08:53:24;8.27;;;4.35;;
66972;SDS011;53902;51.466;-2.586;2023-03-02T08:58:26;8.65;;;4.80;;
66972;SDS011;53902;51.466;-2.586;2023-03-02T09:00:51;8.63;;;5.03;;
66972;SDS011;53902;51.466;-2.586;2023-03-02T09:03:16;6.10;;;3.92;;
66972;SDS011;53902;51.466;-2.586;2023-03-02T09:05:42;7.32;;;4.50;;
66972;SDS011;53902;51.466;-2.586;2023-03-02T09:08:10;9.70;;;4.65;;
66972;SDS011;53902;51.466;-2.586;2023-03-02T09:10:36;15.00;;;6.03;;
66972;SDS011;53902;51.466;-2.586;2023-03-02T09:13:03;10.30;;;5.80;;
66972;SDS011;53902;51.466;-2.586;2023-03-02T09:15:28;10.82;;;5.07;;
66972;SDS011;53902;51.466;-2.586;2023-03-02T09:17:54;6.93;;;4.72;;
66972;SDS011;53902;51.466;-2.586;2023-03-02T09:20:21;9.48;;;5.03;;
66972;SDS011;53902;51.466;-2.586;2023-03-02T09:22:47;8.98;;;5.63;;
66972;SDS011;53902;51.466;-2.586;2023-03-02T09:27:43;10.65;;;5.90;;
66972;SDS011;53902;51.466;-2.586;2023-03-02T09:30:09;13.20;;;5.83;;
66972;SDS011;53902;51.466;-2.586;2023-03-02T09:32:40;12.10;;;5.95;;
66972;SDS011;53902;51.466;-2.586;2023-03-02T09:35:06;13.93;;;5.80;;
66972;SDS011;53902;51.466;-2.586;2023-03-02T09:38:17;9.50;;;5.70;;
66972;SDS011;53902;51.466;-2.586;2023-03-02T09:48:57;7.88;;;5.32;;
66972;SDS011;53902;51.466;-2.586;2023-03-02T09:51:30;10.32;;;5.88;;
66972;SDS011;53902;51.466;-2.586;2023-03-02T09:54:02;15.38;;;6.30;;
66972;SDS011;53902;51.466;-2.586;2023-03-02T09:56:28;9.68;;;6.05;;
66972;SDS011;53902;51.466;-2.586;2023-03-02T09:58:57;10.57;;;5.90;;
66972;SDS011;53902;51.466;-2.586;2023-03-02T10:01:37;12.65;;;5.90;;
66972;SDS011;53902;51.466;-2.586;2023-03-02T10:04:10;8.65;;;5.32;;
66972;SDS011;53902;51.466;-2.586;2023-03-02T10:07:10;9.85;;;6.00;;
66972;SDS011;53902;51.466;-2.586;2023-03-02T10:09:38;13.52;;;6.28;;
66972;SDS011;53902;51.466;-2.586;2023-03-02T10:12:13;11.35;;;5.78;;
66972;SDS011;53902;51.466;-2.586;2023-03-02T10:14:51;7.38;;;4.97;;
66972;SDS011;53902;51.466;-2.586;2023-03-02T10:17:32;11.75;;;5.75;;
66972;SDS011;53902;51.466;-2.586;2023-03-02T10:22:53;11.13;;;6.38;;
66972;SDS011;53902;51.466;-2.586;2023-03-02T10:25:37;10.65;;;6.18;;
66972;SDS011;53902;51.466;-2.586;2023-03-02T10:28:23;12.50;;;6.57;;
66972;SDS011;53902;51.466;-2.586;2023-03-02T10:31:08;9.35;;;5.95;;
66972;SDS011;53902;51.466;-2.586;2023-03-02T10:33:44;9.25;;;6.20;;
66972;SDS011;53902;51.466;-2.586;2023-03-02T10:36:29;14.43;;;6.97;;
66972;SDS011;53902;51.466;-2.586;2023-03-02T10:38:59;12.35;;;6.53;;
66972;SDS011;53902;51.466;-2.586;2023-03-02T10:41:26;16.17;;;6.95;;
66972;SDS011;53902;51.466;-2.586;2023-03-02T10:43:54;10.63;;;7.18;;
66972;SDS011;53902;51.466;-2.586;2023-03-02T10:46:36;12.05;;;6.80;;
66972;SDS011;53902;51.466;-2.586;2023-03-02T10:49:17;12.65;;;6.90;;
66972;SDS011;53902;51.466;-2.586;2023-03-02T10:52:33;13.18;;;7.35;;
66972;SDS011;53902;51.466;-2.586;2023-03-02T10:54:44;13.02;;;7.30;;
66972;SDS011;53902;51.466;-2.586;2023-03-02T10:59:51;13.02;;;7.38;;
66972;SDS011;53902;51.466;-2.586;2023-03-02T11:02:20;13.85;;;6.93;;
66972;SDS011;53902;51.466;-2.586;2023-03-02T11:04:57;13.85;;;8.02;;
66972;SDS011;53902;51.466;-2.586;2023-03-02T11:07:37;16.33;;;8.60;;
66972;SDS011;53902;51.466;-2.586;2023-03-02T11:10:19;18.20;;;8.73;;
66972;SDS011;53902;51.466;-2.586;2023-03-02T11:12:48;14.75;;;8.23;;
66972;SDS011;53902;51.466;-2.586;2023-03-02T11:17:47;13.30;;;8.48;;
66972;SDS011;53902;51.466;-2.586;2023-03-02T11:20:35;12.18;;;7.65;;
66972;SDS011;53902;51.466;-2.586;2023-03-02T11:25:42;14.88;;;8.57;;
66972;SDS011;53902;51.466;-2.586;2023-03-02T11:30:59;18.77;;;8.85;;
66972;SDS011;53902;51.466;-2.586;2023-03-02T11:33:36;13.10;;;8.25;;
66972;SDS011;53902;51.466;-2.586;2023-03-02T11:36:11;16.80;;;8.70;;
66972;SDS011;53902;51.466;-2.586;2023-03-02T11:38:48;15.05;;;8.70;;
66972;SDS011;53902;51.466;-2.586;2023-03-02T11:41:31;14.68;;;9.07;;
66972;SDS011;53902;51.466;-2.586;2023-03-02T11:43:58;13.25;;;8.23;;
66972;SDS011;53902;51.466;-2.586;2023-03-02T11:46:26;16.13;;;7.60;;
66972;SDS011;53902;51.466;-2.586;2023-03-02T11:48:58;14.68;;;8.45;;
66972;SDS011;53902;51.466;-2.586;2023-03-02T11:51:29;13.65;;;7.70;;
66972;SDS011;53902;51.466;-2.586;2023-03-02T11:54:44;15.85;;;8.07;;
66972;SDS011;53902;51.466;-2.586;2023-03-02T11:56:53;14.80;;;8.05;;
66972;SDS011;53902;51.466;-2.586;2023-03-02T11:59:21;13.70;;;7.82;;
66972;SDS011;53902;51.466;-2.586;2023-03-02T12:01:49;15.30;;;8.13;;
66972;SDS011;53902;51.466;-2.586;2023-03-02T12:04:35;16.30;;;6.90;;
66972;SDS011;53902;51.466;-2.586;2023-03-02T12:07:14;15.98;;;8.50;;
66972;SDS011;53902;51.466;-2.586;2023-03-02T12:09:54;15.85;;;7.28;;
66972;SDS011;53902;51.466;-2.586;2023-03-02T12:14:50;13.07;;;7.88;;
66972;SDS011;53902;51.466;-2.586;2023-03-02T12:19:54;15.25;;;8.48;;
66972;SDS011;53902;51.466;-2.586;2023-03-02T12:23:18;12.07;;;7.13;;
66972;SDS011;53902;51.466;-2.586;2023-03-02T12:25:47;16.77;;;8.55;;
66972;SDS011;53902;51.466;-2.586;2023-03-02T12:28:26;16.02;;;7.75;;
66972;SDS011;53902;51.466;-2.586;2023-03-02T12:31:12;15.55;;;7.90;;
66972;SDS011;53902;51.466;-2.586;2023-03-02T12:33:50;16.00;;;7.93;;
66972;SDS011;53902;51.466;-2.586;2023-03-02T12:36:28;13.48;;;8.00;;
66972;SDS011;53902;51.466;-2.586;2023-03-02T12:41:47;15.43;;;8.85;;
66972;SDS011;53902;51.466;-2.586;2023-03-02T12:49:56;13.80;;;7.93;;
66972;SDS011;53902;51.466;-2.586;2023-03-02T12:52:27;14.23;;;7.72;;
66972;SDS011;53902;51.466;-2.586;2023-03-02T12:55:01;13.07;;;7.80;;
66972;SDS011;53902;51.466;-2.586;2023-03-02T12:57:35;14.15;;;8.35;;
66972;SDS011;53902;51.466;-2.586;2023-03-02T13:00:04;14.32;;;7.80;;
66972;SDS011;53902;51.466;-2.586;2023-03-02T13:02:43;13.85;;;7.97;;
66972;SDS011;53902;51.466;-2.586;2023-03-02T13:05:16;13.75;;;7.82;;
66972;SDS011;53902;51.466;-2.586;2023-03-02T13:10:21;14.07;;;8.02;;
66972;SDS011;53902;51.466;-2.586;2023-03-02T13:15:26;12.48;;;7.60;;
66972;SDS011;53902;51.466;-2.586;2023-03-02T13:23:21;17.13;;;8.25;;
66972;SDS011;53902;51.466;-2.586;2023-03-02T14:12:27;11.77;;;7.87;;
66972;SDS011;53902;51.466;-2.586;2023-03-02T14:14:56;15.90;;;8.57;;
66972;SDS011;53902;51.466;-2.586;2023-03-02T14:17:23;10.60;;;7.72;;
66972;SDS011;53902;51.466;-2.586;2023-03-02T14:19:49;14.07;;;7.75;;
66972;SDS011;53902;51.466;-2.586;2023-03-02T14:22:24;12.13;;;7.68;;
66972;SDS011;53902;51.466;-2.586;2023-03-02T14:24:50;15.85;;;7.47;;
66972;SDS011;53902;51.466;-2.586;2023-03-02T14:27:17;14.07;;;7.53;;
66972;SDS011;53902;51.466;-2.586;2023-03-02T14:29:44;12.20;;;7.90;;
66972;SDS011;53902;51.466;-2.586;2023-03-02T14:32:10;14.32;;;8.27;;
66972;SDS011;53902;51.466;-2.586;2023-03-02T14:34:37;14.60;;;8.40;;
66972;SDS011;53902;51.466;-2.586;2023-03-02T14:37:07;12.88;;;8.75;;
66972;SDS011;53902;51.466;-2.586;2023-03-02T14:39:39;10.70;;;7.25;;
66972;SDS011;53902;51.466;-2.586;2023-03-02T14:42:12;12.77;;;7.80;;
66972;SDS011;53902;51.466;-2.586;2023-03-02T14:44:41;12.43;;;8.07;;
66972;SDS011;53902;51.466;-2.586;2023-03-02T14:47:17;16.23;;;8.02;;
66972;SDS011;53902;51.466;-2.586;2023-03-02T14:49:43;11.90;;;7.70;;
66972;SDS011;53902;51.466;-2.586;2023-03-02T14:54:48;14.18;;;8.05;;
66972;SDS011;53902;51.466;-2.586;2023-03-02T14:57:19;12.93;;;7.70;;
66972;SDS011;53902;51.466;-2.586;2023-03-02T14:59:46;9.95;;;7.10;;
66972;SDS011;53902;51.466;-2.586;2023-03-02T15:02:15;11.35;;;7.50;;
66972;SDS011;53902;51.466;-2.586;2023-03-02T15:04:41;13.23;;;7.70;;
66972;SDS011;53902;51.466;-2.586;2023-03-02T15:07:10;15.68;;;8.55;;
66972;SDS011;53902;51.466;-2.586;2023-03-02T15:09:37;12.80;;;8.00;;
66972;SDS011;53902;51.466;-2.586;2023-03-02T15:12:03;14.33;;;7.77;;
66972;SDS011;53902;51.466;-2.586;2023-03-02T15:14:28;13.45;;;7.65;;
66972;SDS011;53902;51.466;-2.586;2023-03-02T15:16:54;14.32;;;7.88;;
66972;SDS011;53902;51.466;-2.586;2023-03-02T15:19:19;15.05;;;7.70;;
66972;SDS011;53902;51.466;-2.586;2023-03-02T15:21:48;15.35;;;7.97;;
66972;SDS011;53902;51.466;-2.586;2023-03-02T15:24:13;13.52;;;8.20;;
66972;SDS011;53902;51.466;-2.586;2023-03-02T15:26:42;11.02;;;7.10;;
66972;SDS011;53902;51.466;-2.586;2023-03-02T15:29:12;12.23;;;6.93;;
66972;SDS011;53902;51.466;-2.586;2023-03-02T15:31:40;10.98;;;6.03;;
66972;SDS011;53902;51.466;-2.586;2023-03-02T15:36:41;11.88;;;7.20;;
66972;SDS011;53902;51.466;-2.586;2023-03-02T15:39:06;9.80;;;6.60;;
66972;SDS011;53902;51.466;-2.586;2023-03-02T15:41:35;9.02;;;6.03;;
66972;SDS011;53902;51.466;-2.586;2023-03-02T15:44:00;111.07;;;9.68;;
66972;SDS011;53902;51.466;-2.586;2023-03-02T15:46:26;10.57;;;6.43;;
66972;SDS011;53902;51.466;-2.586;2023-03-02T15:48:51;9.65;;;5.80;;
66972;SDS011;53902;51.466;-2.586;2023-03-02T15:51:18;7.57;;;5.88;;
66972;SDS011;53902;51.466;-2.586;2023-03-02T15:53:43;10.93;;;6.00;;
66972;SDS011;53902;51.466;-2.586;2023-03-02T15:56:10;11.00;;;6.40;;
66972;SDS011;53902;51.466;-2.586;2023-03-02T15:58:38;8.00;;;5.90;;
66972;SDS011;53902;51.466;-2.586;2023-03-02T16:01:07;9.20;;;5.90;;
66972;SDS011;53902;51.466;-2.586;2023-03-02T16:03:34;8.35;;;5.93;;
66972;SDS011;53902;51.466;-2.586;2023-03-02T16:06:00;9.00;;;5.75;;
66972;SDS011;53902;51.466;-2.586;2023-03-02T16:08:25;9.00;;;6.43;;
66972;SDS011;53902;51.466;-2.586;2023-03-02T16:10:57;11.10;;;5.97;;
66972;SDS011;53902;51.466;-2.586;2023-03-02T16:13:23;9.40;;;6.00;;
66972;SDS011;53902;51.466;-2.586;2023-03-02T16:15:51;9.35;;;5.45;;
66972;SDS011;53902;51.466;-2.586;2023-03-02T16:18:22;10.30;;;6.20;;
66972;SDS011;53902;51.466;-2.586;2023-03-02T16:20:47;9.75;;;5.85;;
66972;SDS011;53902;51.466;-2.586;2023-03-02T16:23:13;9.25;;;6.13;;
66972;SDS011;53902;51.466;-2.586;2023-03-02T16:25:40;8.48;;;5.60;;
66972;SDS011;53902;51.466;-2.586;2023-03-02T16:28:11;10.93;;;5.93;;
66972;SDS011;53902;51.466;-2.586;2023-03-02T16:30:40;7.32;;;5.78;;
66972;SDS011;53902;51.466;-2.586;2023-03-02T16:33:08;7.22;;;5.22;;
66972;SDS011;53902;51.466;-2.586;2023-03-02T16:35:41;7.70;;;5.40;;
66972;SDS011;53902;51.466;-2.586;2023-03-02T16:38:10;7.03;;;5.35;;
66972;SDS011;53902;51.466;-2.586;2023-03-02T16:40:36;7.72;;;5.80;;
66972;SDS011;53902;51.466;-2.586;2023-03-02T16:43:04;12.38;;;6.47;;
66972;SDS011;53902;51.466;-2.586;2023-03-02T16:45:32;8.73;;;5.07;;
66972;SDS011;53902;51.466;-2.586;2023-03-02T16:48:00;9.70;;;5.43;;
66972;SDS011;53902;51.466;-2.586;2023-03-02T16:50:26;7.47;;;5.35;;
66972;SDS011;53902;51.466;-2.586;2023-03-02T16:52:52;10.73;;;5.63;;
66972;SDS011;53902;51.466;-2.586;2023-03-02T16:55:17;9.30;;;5.63;;
66972;SDS011;53902;51.466;-2.586;2023-03-02T16:57:46;14.15;;;6.90;;